Time;durP1;ratioP1;P1;durP2;ratioP2;P2;SDS_P1;SDS_P2;PMS_P1;PMS_P2;Temp;Humidity;BMP_temperature;BMP_pressure;BME280_temperature;BME280_humidity;BME280_pressure;Samples;Min_cycle;Max_cycle;Signal;HPM_P1;HPM_P2
2022/09/07 00:00:39;;;;;;;5.85;2.87;;;;;;;13.83;81.59;95946.14;1726897;83;21059;-73
2022/09/07 00:03:07;;;;;;;6.53;3.02;;;;;;;13.75;81.94;95946.77;1726990;83;20999;-73
2022/09/07 00:05:35;;;;;;;7.00;3.10;;;;;;;13.77;82.64;95942.30;1726863;83;21039;-73
2022/09/07 00:08:02;;;;;;;6.75;3.30;;;;;;;13.83;83.26;95931.55;1726971;83;21023;-73
2022/09/07 00:10:29;;;;;;;4.33;2.90;;;;;;;13.85;82.94;95931.02;1726999;83;21082;-71
2022/09/07 00:12:55;;;;;;;4.85;2.90;;;;;;;13.90;82.79;95926.94;1727430;83;21019;-71
2022/09/07 00:15:22;;;;;;;4.95;3.08;;;;;;;13.88;82.55;95927.88;1727116;83;21055;-71
2022/09/07 00:17:49;;;;;;;6.35;2.95;;;;;;;13.80;82.83;95927.62;1727228;83;21003;-71
2022/09/07 00:20:15;;;;;;;4.15;2.55;;;;;;;13.83;83.17;95932.88;1727188;83;21011;-71
2022/09/07 00:22:44;;;;;;;3.60;3.10;;;;;;;13.80;83.06;95926.30;1727069;83;21038;-71
2022/09/07 00:25:12;;;;;;;5.80;2.83;;;;;;;13.80;84.27;95926.30;1727212;83;21060;-71
2022/09/07 00:27:39;;;;;;;3.50;3.20;;;;;;;13.77;83.97;95925.06;1727063;83;20991;-71
2022/09/07 00:30:07;;;;;;;8.50;3.30;;;;;;;13.77;83.68;95925.06;1726792;83;21066;-71
2022/09/07 00:32:34;;;;;;;4.08;3.17;;;;;;;13.73;83.91;95927.82;1727032;83;21057;-71
2022/09/07 00:35:01;;;;;;;3.12;2.83;;;;;;;13.73;83.90;95927.82;1726985;83;21031;-71
2022/09/07 00:37:28;;;;;;;8.00;3.37;;;;;;;13.73;84.15;95926.49;1727197;83;20983;-71
2022/09/07 00:39:54;;;;;;;6.67;3.22;;;;;;;13.73;83.76;95927.36;1727132;83;21495;-71
2022/09/07 00:42:22;;;;;;;6.47;3.35;;;;;;;13.77;83.79;95923.73;1727458;83;21066;-71
2022/09/07 00:45:11;;;;;;;5.58;3.27;;;;;;;13.77;83.50;95922.41;1726829;83;21069;-71
2022/09/07 00:47:58;;;;;;;5.60;3.45;;;;;;;13.79;83.48;95921.92;1726862;83;21524;-71
2022/09/07 00:50:36;;;;;;;4.75;2.72;;;;;;;13.80;83.57;95922.31;1727124;83;21042;-71
2022/09/07 00:53:17;;;;;;;4.62;3.17;;;;;;;13.87;83.47;95919.52;1727356;82;21005;-70
2022/09/07 00:55:47;;;;;;;3.40;3.10;;;;;;;13.93;83.41;95927.31;1727210;83;21023;-71
2022/09/07 00:58:15;;;;;;;3.55;2.65;;;;;;;14.01;83.31;95925.31;1726770;83;20979;-71
2022/09/07 01:00:46;;;;;;;5.45;2.80;;;;;;;14.06;83.11;95922.08;1727112;83;21023;-71
2022/09/07 01:03:17;;;;;;;4.67;3.10;;;;;;;14.12;83.20;95928.56;1726842;83;21010;-71
2022/09/07 01:06:02;;;;;;;3.05;2.47;;;;;;;14.13;82.88;95938.25;1727099;83;21030;-71
2022/09/07 01:08:29;;;;;;;3.50;2.55;;;;;;;14.15;82.96;95937.77;1724012;83;21532;-73
2022/09/07 01:10:59;;;;;;;6.20;2.87;;;;;;;14.16;82.68;95958.10;1726950;83;21074;-73
2022/09/07 01:13:28;;;;;;;4.10;2.72;;;;;;;14.12;81.93;96000.21;1726958;83;21495;-73
2022/09/07 01:16:24;;;;;;;4.00;2.70;;;;;;;14.09;81.82;96010.05;1726990;83;21086;-73
2022/09/07 01:19:30;;;;;;;5.70;3.12;;;;;;;14.04;82.00;96015.47;1726810;83;21023;-73
2022/09/07 01:22:28;;;;;;;4.10;2.98;;;;;;;14.08;82.80;96023.74;1726285;83;21062;-73
2022/09/07 01:25:14;;;;;;;4.17;3.08;;;;;;;14.13;82.58;96015.67;1713729;83;21041;-73
2022/09/07 01:28:07;;;;;;;3.90;3.20;;;;;;;14.14;82.69;96012.13;1700672;83;21007;-73
2022/09/07 01:30:39;;;;;;;3.45;3.05;;;;;;;14.12;82.82;96009.50;1727282;83;20983;-73
2022/09/07 01:33:50;;;;;;;3.52;3.10;;;;;;;14.11;83.19;96002.89;1700276;83;21007;-73
2022/09/07 01:36:33;;;;;;;3.65;3.27;;;;;;;14.09;84.40;96007.39;1712185;83;21027;-73
2022/09/07 01:39:04;;;;;;;;;;;;;;;14.14;83.96;95990.89;1729703;83;21150;-73
2022/09/07 01:41:45;;;;;;;4.30;3.17;;;;;;;14.22;83.72;95981.80;1726770;83;20097;-73
2022/09/07 01:44:26;;;;;;;3.45;3.15;;;;;;;14.27;83.93;95977.24;1719070;83;21481;-73
2022/09/07 01:47:07;;;;;;;6.90;3.55;;;;;;;14.23;84.63;95972.05;1725791;83;21031;-73
2022/09/07 01:49:41;;;;;;;6.47;3.60;;;;;;;14.28;84.59;95968.36;1727161;83;21042;-73
2022/09/07 01:52:32;;;;;;;6.20;3.33;;;;;;;14.29;84.57;95959.50;1727162;82;21062;-73
2022/09/07 01:55:16;;;;;;;6.17;3.50;;;;;;;14.33;84.63;95964.25;1727184;83;20991;-73
2022/09/07 01:57:51;;;;;;;9.85;3.20;;;;;;;14.35;85.01;95970.40;1727205;83;21035;-73
2022/09/07 02:00:19;;;;;;;3.87;3.52;;;;;;;14.39;85.44;95963.20;1727298;83;21400;-73
2022/09/07 02:02:59;;;;;;;8.90;3.90;;;;;;;14.36;84.43;95954.01;1726979;82;21030;-73
2022/09/07 02:05:33;;;;;;;4.30;3.87;;;;;;;14.36;84.67;95951.35;1727139;83;21469;-73
2022/09/07 02:08:38;;;;;;;5.33;3.42;;;;;;;14.46;85.00;95947.53;1725589;83;21113;-73
2022/09/07 02:11:19;;;;;;;7.22;4.20;;;;;;;14.47;84.60;95946.63;1727391;83;21050;-73
2022/09/07 02:13:51;;;;;;;3.75;3.45;;;;;;;14.42;85.38;95948.08;1727131;83;21027;-73
2022/09/07 02:16:27;;;;;;;5.62;3.10;;;;;;;14.46;85.03;95944.44;1726790;83;20983;-73
2022/09/07 02:19:08;;;;;;;5.47;3.22;;;;;;;14.48;85.38;95940.39;1727093;82;21027;-73
2022/09/07 02:21:41;;;;;;;4.15;3.55;;;;;;;14.54;85.90;95938.05;1725624;83;21433;-73
2022/09/07 02:24:16;;;;;;;7.58;3.67;;;;;;;14.46;84.89;95945.77;1727325;83;21083;-73
2022/09/07 02:26:47;;;;;;;7.47;3.90;;;;;;;14.47;85.35;95947.96;1726616;83;21050;-73
2022/09/07 02:29:14;;;;;;;5.20;3.08;;;;;;;14.56;85.46;95942.41;1727253;83;21026;-72
2022/09/07 02:31:42;;;;;;;3.80;3.35;;;;;;;14.64;84.90;95939.52;1727063;83;21524;-73
2022/09/07 02:34:09;;;;;;;6.12;4.20;;;;;;;14.62;84.17;95938.26;1700612;83;21062;-73
2022/09/07 02:36:44;;;;;;;7.10;4.00;;;;;;;14.49;84.98;95930.20;1727046;83;21022;-73
2022/09/07 02:39:11;;;;;;;4.15;3.42;;;;;;;14.48;85.77;95931.97;1726751;83;21035;-73
2022/09/07 02:41:44;;;;;;;4.50;3.17;;;;;;;14.54;85.56;95932.30;1726964;83;21098;-73
2022/09/07 02:44:22;;;;;;;3.33;3.02;;;;;;;14.55;85.51;95926.07;1727183;83;20998;-73
2022/09/07 02:47:16;;;;;;;3.42;3.12;;;;;;;14.50;84.56;95928.81;1727211;83;21046;-73
2022/09/07 02:50:14;;;;;;;7.22;3.52;;;;;;;14.44;84.58;95918.84;1727319;83;21511;-72
2022/09/07 02:52:55;;;;;;;3.92;3.52;;;;;;;14.45;85.70;95910.82;1727163;83;21003;-72
2022/09/07 02:55:59;;;;;;;4.20;3.37;;;;;;;14.50;85.48;95914.67;1727598;82;21051;-72
2022/09/07 02:58:44;;;;;;;5.05;3.35;;;;;;;14.51;85.81;95913.75;1726942;83;21032;-73
2022/09/07 03:01:21;;;;;;;3.87;3.55;;;;;;;14.56;85.85;95911.00;1727407;83;21063;-72
2022/09/07 03:04:08;;;;;;;4.97;3.30;;;;;;;14.60;85.45;95908.68;1726704;83;21584;-73
2022/09/07 03:06:56;;;;;;;6.55;3.47;;;;;;;14.52;84.56;95906.22;1727033;83;21027;-72
2022/09/07 03:09:27;;;;;;;5.97;3.90;;;;;;;14.47;84.76;95900.17;1720372;83;21038;-72
2022/09/07 03:11:54;;;;;;;7.15;3.72;;;;;;;14.55;85.98;95888.03;1727327;83;21030;-73
2022/09/07 03:14:25;;;;;;;7.00;3.47;;;;;;;14.60;85.69;95892.28;1727245;82;21453;-72
2022/09/07 03:16:55;;;;;;;4.60;3.37;;;;;;;14.64;85.41;95891.29;1727330;83;21011;-73
2022/09/07 03:19:22;;;;;;;7.15;3.47;;;;;;;14.60;85.34;95894.94;1726979;83;21095;-72
2022/09/07 03:21:49;;;;;;;4.80;3.17;;;;;;;14.61;85.91;95892.68;1727263;83;21469;-73
2022/09/07 03:24:16;;;;;;;4.90;3.70;;;;;;;14.70;85.72;95897.73;1726957;83;21043;-72
2022/09/07 03:26:47;;;;;;;6.80;3.50;;;;;;;14.74;85.56;95889.23;1727215;83;21007;-73
2022/09/07 03:29:15;;;;;;;4.35;3.52;;;;;;;14.73;84.89;95889.27;1727471;83;21113;-72
2022/09/07 03:31:42;;;;;;;9.65;3.20;;;;;;;14.64;84.97;95894.38;1727227;83;21078;-72
2022/09/07 03:34:09;;;;;;;6.12;3.50;;;;;;;14.56;84.64;95885.77;1726697;83;21587;-72
2022/09/07 03:36:36;;;;;;;7.53;3.50;;;;;;;14.57;85.66;95885.74;1727284;83;20963;-72
2022/09/07 03:39:06;;;;;;;4.70;3.30;;;;;;;14.63;86.07;95892.65;1726994;83;21477;-72
2022/09/07 03:41:33;;;;;;;3.55;3.10;;;;;;;14.66;85.64;95897.86;1727262;83;21041;-72
2022/09/07 03:44:04;;;;;;;4.95;3.30;;;;;;;14.60;85.36;95897.59;1727231;83;21018;-72
2022/09/07 03:46:31;;;;;;;7.08;3.00;;;;;;;14.69;86.24;95901.31;1726144;83;21008;-73
2022/09/07 03:48:58;;;;;;;3.50;3.20;;;;;;;14.69;86.24;95901.31;1726792;83;21070;-73
2022/09/07 03:51:25;;;;;;;4.08;2.92;;;;;;;14.79;85.57;95894.38;1727224;83;21572;-73
2022/09/07 03:53:54;;;;;;;6.22;3.72;;;;;;;14.79;85.57;95894.38;1726788;83;21030;-73
2022/09/07 03:56:23;;;;;;;6.15;3.67;;;;;;;14.90;86.04;95926.82;1727208;83;21002;-73
2022/09/07 03:58:53;;;;;;;5.97;3.90;;;;;;;14.90;86.04;95926.82;1727144;83;21026;-73
2022/09/07 04:01:23;;;;;;;5.08;3.42;;;;;;;14.91;85.44;95914.80;1727020;83;21019;-73
2022/09/07 04:03:51;;;;;;;3.30;3.00;;;;;;;14.98;85.69;95937.21;1727155;83;21035;-73
2022/09/07 04:06:19;;;;;;;3.65;3.20;;;;;;;14.98;85.69;95937.21;1727245;83;21097;-73
2022/09/07 04:08:46;;;;;;;4.03;3.65;;;;;;;14.91;84.62;95945.35;1726818;83;21062;-73
2022/09/07 04:11:16;;;;;;;4.17;3.47;;;;;;;14.84;84.98;95958.43;1727184;83;21081;-72
2022/09/07 04:13:44;;;;;;;7.50;3.50;;;;;;;14.75;85.08;95968.45;1727154;83;21019;-72
2022/09/07 04:16:16;;;;;;;8.45;3.67;;;;;;;14.69;85.30;95969.05;1727106;83;21035;-72
2022/09/07 04:18:43;;;;;;;6.72;4.05;;;;;;;14.71;85.51;95967.65;1726346;83;21512;-73
2022/09/07 04:21:10;;;;;;;10.30;4.08;;;;;;;14.73;86.31;95950.35;1726963;83;21022;-72
2022/09/07 04:23:39;;;;;;;8.63;4.62;;;;;;;14.63;87.93;95941.31;1727087;83;21042;-72
2022/09/07 04:26:13;;;;;;;7.33;4.28;;;;;;;14.60;87.55;95930.78;1727345;83;21046;-72
2022/09/07 04:28:40;;;;;;;5.42;3.25;;;;;;;14.62;87.62;95938.72;1726693;83;21535;-72
2022/09/07 04:31:06;;;;;;;5.25;4.03;;;;;;;14.63;87.23;95943.97;1727193;83;21453;-72
2022/09/07 04:33:33;;;;;;;5.72;3.70;;;;;;;14.61;86.94;95943.14;1727303;83;20991;-72
2022/09/07 04:36:01;;;;;;;5.87;3.65;;;;;;;14.64;86.71;95937.77;1727230;83;21062;-72
2022/09/07 04:38:29;;;;;;;6.08;3.95;;;;;;;14.63;86.33;95941.78;1726988;83;21054;-72
2022/09/07 04:41:12;;;;;;;5.55;3.40;;;;;;;14.68;86.70;95935.88;1727114;83;21042;-72
2022/09/07 04:43:42;;;;;;;6.17;3.42;;;;;;;14.71;86.79;95931.33;1726134;83;21057;-72
2022/09/07 04:46:22;;;;;;;6.15;4.62;;;;;;;14.68;86.35;95931.89;1727117;83;21047;-71
2022/09/07 04:48:51;;;;;;;4.08;3.62;;;;;;;14.65;86.18;95943.47;1726905;83;21062;-71
2022/09/07 04:51:21;;;;;;;3.80;3.50;;;;;;;14.63;86.63;95941.31;1726872;83;21834;-73
2022/09/07 04:53:50;;;;;;;4.20;3.70;;;;;;;14.71;86.96;95943.75;1727126;83;21019;-67
2022/09/07 04:56:19;;;;;;;5.95;4.20;;;;;;;14.75;87.09;95948.06;1727161;83;21042;-69
2022/09/07 04:58:46;;;;;;;167.05;86.53;;;;;;;14.87;87.38;95940.20;1726371;83;20999;-71
2022/09/07 05:01:17;;;;;;;104.60;56.58;;;;;;;14.93;87.14;95946.18;1725992;83;21007;-75
2022/09/07 05:03:45;;;;;;;11.15;6.40;;;;;;;14.99;87.00;95953.09;1698846;83;21070;-70
2022/09/07 05:06:12;;;;;;;12.93;6.67;;;;;;;15.08;87.04;95965.25;1725615;83;21599;-70
2022/09/07 05:08:43;;;;;;;11.73;8.85;;;;;;;15.18;87.07;95962.72;1725481;82;21042;-74
2022/09/07 05:11:12;;;;;;;10.20;7.12;;;;;;;15.24;86.46;95955.87;1725768;83;21078;-70
2022/09/07 05:13:39;;;;;;;8.00;6.47;;;;;;;15.27;86.28;95961.12;1725655;83;21105;-71
2022/09/07 05:16:22;;;;;;;5.62;4.45;;;;;;;15.31;86.37;95967.19;1726054;82;21054;-70
2022/09/07 05:18:58;;;;;;;8.63;6.95;;;;;;;15.31;85.73;95974.70;1725572;83;21129;-71
2022/09/07 05:21:28;;;;;;;4.60;3.87;;;;;;;15.26;85.64;95983.75;1726370;83;21014;-66
2022/09/07 05:23:57;;;;;;;5.00;3.62;;;;;;;15.27;85.43;95994.78;1726035;83;21140;-69
2022/09/07 05:26:29;;;;;;;4.70;3.87;;;;;;;15.23;85.48;96013.09;1717898;83;21089;-69
2022/09/07 05:29:01;;;;;;;8.55;6.60;;;;;;;14.90;86.65;95990.13;1679182;85;21560;-71
2022/09/07 05:31:26;;;;;;;16.42;14.35;;;;;;;14.81;86.32;96005.45;1678636;85;21113;-69
2022/09/07 05:33:59;;;;;;;4.72;3.87;;;;;;;14.81;86.32;96005.45;1678961;84;21046;-69
2022/09/07 05:36:25;;;;;;;12.25;10.75;;;;;;;14.84;86.38;96002.70;1679619;85;21070;-72
2022/09/07 05:38:53;;;;;;;8.03;7.25;;;;;;;14.76;87.28;96004.71;1677649;84;21098;-71
2022/09/07 05:41:25;;;;;;;4.03;3.62;;;;;;;14.75;87.54;95999.86;1672136;86;21071;-69
2022/09/07 05:43:53;;;;;;;13.45;12.15;;;;;;;14.81;87.17;95988.18;1672269;86;21110;-68
2022/09/07 05:46:21;;;;;;;9.80;8.90;;;;;;;14.81;87.17;95988.18;1672063;86;21078;-67
2022/09/07 05:48:48;;;;;;;10.20;9.18;;;;;;;14.92;87.55;95979.46;1671237;86;21105;-70
2022/09/07 05:51:15;;;;;;;6.85;6.08;;;;;;;14.92;87.55;95979.46;1672426;86;21050;-70
2022/09/07 05:53:46;;;;;;;9.10;8.13;;;;;;;15.01;87.43;95977.84;1671373;85;21097;-69
2022/09/07 05:56:13;;;;;;;8.33;5.78;;;;;;;14.96;86.45;95990.39;1671702;85;21083;-69
2022/09/07 05:58:40;;;;;;;6.20;5.05;;;;;;;14.96;86.45;95990.39;1672265;86;21050;-68
2022/09/07 06:01:10;;;;;;;4.65;4.03;;;;;;;15.02;87.05;95988.90;1672216;86;21067;-73
2022/09/07 06:03:40;;;;;;;3.77;2.83;;;;;;;15.09;86.81;95981.16;1671569;86;21062;-69
2022/09/07 06:06:17;;;;;;;4.10;3.42;;;;;;;15.14;86.72;95983.65;1672437;86;21070;-67
2022/09/07 06:08:48;;;;;;;4.72;3.00;;;;;;;15.14;86.54;95987.64;1671496;85;21082;-71
2022/09/07 06:11:18;;;;;;;5.22;3.90;;;;;;;15.24;86.95;95993.08;1672549;86;21027;-70
2022/09/07 06:13:45;;;;;;;8.85;7.28;;;;;;;15.25;86.23;95992.19;1671567;86;21086;-69
2022/09/07 06:16:14;;;;;;;8.93;4.22;;;;;;;15.19;86.08;95996.81;1672337;86;21545;-71
2022/09/07 06:18:44;;;;;;;3.25;2.90;;;;;;;15.17;86.33;95994.22;1672345;86;21050;-70
2022/09/07 06:21:20;;;;;;;3.77;2.60;;;;;;;15.26;86.71;95992.59;1671882;86;21051;-69
2022/09/07 06:23:48;;;;;;;3.40;3.10;;;;;;;15.29;86.59;95998.27;1673120;86;21040;-66
2022/09/07 06:26:18;;;;;;;4.70;3.30;;;;;;;15.28;86.09;95993.88;1673178;86;21481;-68
2022/09/07 06:28:47;;;;;;;3.25;2.67;;;;;;;15.23;85.94;95992.69;1672654;86;21066;-72
2022/09/07 06:31:18;;;;;;;10.48;9.45;;;;;;;15.23;85.94;95992.69;1672177;86;21097;-70
2022/09/07 06:33:50;;;;;;;5.72;3.20;;;;;;;15.14;86.36;95983.22;1672201;86;21415;-71
2022/09/07 06:36:18;;;;;;;3.67;2.75;;;;;;;15.19;86.67;95987.04;1672504;86;21020;-66
2022/09/07 06:38:45;;;;;;;4.65;2.70;;;;;;;15.27;86.68;95989.46;1672184;86;21094;-68
2022/09/07 06:41:22;;;;;;;5.12;3.12;;;;;;;15.40;87.06;95989.98;1684567;84;21524;-69
2022/09/07 06:43:50;;;;;;;4.90;2.72;;;;;;;15.47;87.15;95985.75;1754596;82;21508;-68
2022/09/07 06:46:17;;;;;;;2.50;2.30;;;;;;;15.56;87.21;95975.27;1754334;82;21062;-71
2022/09/07 06:48:45;;;;;;;3.60;2.37;;;;;;;15.68;87.03;95978.00;1754473;82;21113;-66
2022/09/07 06:51:17;;;;;;;2.65;1.85;;;;;;;15.78;86.79;95975.48;1753209;82;21077;-70
2022/09/07 06:53:47;;;;;;;5.20;2.10;;;;;;;15.85;85.95;95975.70;1753969;82;21548;-70
2022/09/07 06:56:17;;;;;;;6.62;4.00;;;;;;;15.84;85.85;95978.39;1753841;82;21029;-70
2022/09/07 06:58:44;;;;;;;4.58;4.15;;;;;;;15.87;85.93;95974.30;1754404;82;21029;-67
2022/09/07 07:01:15;;;;;;;16.35;14.75;;;;;;;15.92;85.26;95981.20;1753349;82;21631;-68
2022/09/07 07:03:43;;;;;;;9.38;8.50;;;;;;;15.91;85.21;95974.15;1752978;82;21017;-70
2022/09/07 07:06:11;;;;;;;3.52;3.10;;;;;;;15.95;85.50;95986.88;1753789;82;22194;-72
2022/09/07 07:08:39;;;;;;;4.42;2.80;;;;;;;15.99;85.33;95985.39;1754468;82;21038;-69
2022/09/07 07:11:10;;;;;;;12.93;2.52;;;;;;;15.98;84.94;95981.48;1754234;81;21556;-70
2022/09/07 07:13:39;;;;;;;1.98;1.70;;;;;;;15.96;85.41;95978.85;1753830;82;21092;-70
2022/09/07 07:16:12;;;;;;;1.70;1.55;;;;;;;15.98;85.40;95979.68;1753736;82;22298;-71
2022/09/07 07:18:40;;;;;;;3.10;2.85;;;;;;;16.00;85.40;95986.26;1752650;82;21133;-74
2022/09/07 07:21:13;;;;;;;2.02;1.67;;;;;;;15.97;84.73;95982.38;1753659;82;21061;-73
2022/09/07 07:23:40;;;;;;;2.05;1.85;;;;;;;16.01;85.16;95986.69;1754223;82;21069;-71
2022/09/07 07:26:15;;;;;;;2.67;2.47;;;;;;;16.02;85.23;95992.41;1753910;82;21033;-69
2022/09/07 07:28:48;;;;;;;2.95;2.60;;;;;;;16.09;85.85;95991.75;1754046;82;21002;-67
2022/09/07 07:31:18;;;;;;;2.20;2.00;;;;;;;16.15;85.21;95994.19;1753345;81;21101;-68
2022/09/07 07:33:47;;;;;;;1.80;1.70;;;;;;;16.18;85.12;96000.77;1754627;82;20994;-68
2022/09/07 07:36:25;;;;;;;3.08;1.65;;;;;;;16.10;84.24;96009.02;1753607;82;21109;-68
2022/09/07 07:38:54;;;;;;;3.05;2.00;;;;;;;16.06;84.29;96003.84;1753678;82;21084;-68
2022/09/07 07:41:26;;;;;;;2.30;2.10;;;;;;;16.04;84.64;96001.69;1753688;81;20987;-70
2022/09/07 07:43:58;;;;;;;17.98;12.53;;;;;;;16.02;85.08;96009.70;1754228;82;21093;-68
2022/09/07 07:46:27;;;;;;;9.50;6.03;;;;;;;15.91;84.41;96001.22;1753534;81;21104;-67
2022/09/07 07:48:54;;;;;;;9.70;4.45;;;;;;;15.88;84.92;96000.00;1753418;81;21069;-69
2022/09/07 07:51:21;;;;;;;6.05;3.47;;;;;;;15.92;85.23;96002.48;1754634;82;21022;-67
2022/09/07 07:53:48;;;;;;;9.58;8.75;;;;;;;15.99;85.04;96005.36;1754287;82;21002;-67
2022/09/07 07:56:15;;;;;;;10.80;9.70;;;;;;;16.06;84.91;96007.83;1723797;82;21508;-66
2022/09/07 07:58:47;;;;;;;10.30;9.20;;;;;;;16.04;84.78;96005.20;1753037;82;21164;-68
2022/09/07 08:01:16;;;;;;;3.90;3.50;;;;;;;16.02;84.76;96005.72;1754524;82;21567;-68
2022/09/07 08:03:46;;;;;;;5.00;2.40;;;;;;;16.07;84.96;96011.75;1753483;82;21026;-68
2022/09/07 08:06:17;;;;;;;4.90;2.00;;;;;;;16.04;83.79;96013.20;1752932;82;21543;-68
2022/09/07 08:08:44;;;;;;;5.17;4.78;;;;;;;16.02;84.60;96005.72;1753734;82;21580;-68
2022/09/07 08:11:16;;;;;;;2.90;1.92;;;;;;;16.02;84.78;96004.38;1754003;82;21076;-69
2022/09/07 08:13:45;;;;;;;2.20;2.00;;;;;;;16.12;85.16;96005.81;1753991;82;21014;-69
2022/09/07 08:16:13;;;;;;;2.58;1.98;;;;;;;16.17;84.65;96003.86;1753759;82;21061;-72
2022/09/07 08:18:40;;;;;;;2.75;2.02;;;;;;;16.23;84.92;95999.68;1754499;82;21066;-68
2022/09/07 08:21:13;;;;;;;1.87;1.60;;;;;;;16.27;85.16;96001.77;1754065;82;21551;-71
2022/09/07 08:23:41;;;;;;;2.95;1.35;;;;;;;16.38;85.43;96008.94;1754127;82;20995;-71
2022/09/07 08:26:08;;;;;;;2.08;1.30;;;;;;;16.53;84.89;96000.88;1754844;81;21094;-66
2022/09/07 08:28:41;;;;;;;2.62;2.22;;;;;;;16.57;84.57;96003.81;1754823;81;20999;-67
2022/09/07 08:31:11;;;;;;;4.10;1.75;;;;;;;16.59;83.85;96001.11;1754789;82;21065;-68
2022/09/07 08:33:39;;;;;;;1.35;1.25;;;;;;;16.58;83.81;95990.92;1754708;82;21014;-69
2022/09/07 08:36:12;;;;;;;3.33;1.32;;;;;;;16.65;84.19;95991.08;1723983;82;21128;-69
2022/09/07 08:38:40;;;;;;;3.12;2.80;;;;;;;16.74;84.07;95983.23;1753231;82;21058;-71
2022/09/07 08:41:33;;;;;;;5.58;2.98;;;;;;;16.76;83.67;95978.72;1759366;81;21073;-73
2022/09/07 08:44:14;;;;;;;28.70;25.88;;;;;;;16.77;82.82;95976.92;1761971;81;21041;-74
2022/09/07 08:46:51;;;;;;;19.67;18.00;;;;;;;16.76;83.17;95973.39;1763127;81;21052;-71
2022/09/07 08:49:40;;;;;;;4.45;4.05;;;;;;;16.84;83.82;95975.34;1761994;81;21026;-72
2022/09/07 08:52:26;;;;;;;2.92;1.82;;;;;;;16.97;83.97;95983.74;1762831;81;21045;-71
2022/09/07 08:55:03;;;;;;;1.80;1.45;;;;;;;17.05;83.70;95975.45;1762189;81;21511;-74
2022/09/07 08:57:34;;;;;;;2.25;1.37;;;;;;;17.12;83.58;95971.63;1763221;81;21002;-66
2022/09/07 09:00:16;;;;;;;1.67;1.57;;;;;;;17.23;83.33;95967.20;1762580;81;21109;-72
2022/09/07 09:02:42;;;;;;;1.77;1.47;;;;;;;17.30;82.97;95966.91;1762858;81;20958;-72
2022/09/07 09:05:33;;;;;;;1.87;1.32;;;;;;;17.42;83.05;95965.56;1763115;81;21099;-68
2022/09/07 09:08:26;;;;;;;2.67;1.20;;;;;;;17.58;82.62;95964.95;1760977;81;21013;-72
2022/09/07 09:11:22;;;;;;;1.40;1.30;;;;;;;17.67;81.73;95965.92;1762037;81;21018;-72
2022/09/07 09:14:20;;;;;;;1.15;1.07;;;;;;;17.72;81.40;95967.47;1762790;81;21508;-72
2022/09/07 09:16:51;;;;;;;2.15;1.30;;;;;;;17.69;81.29;95964.94;1762874;81;21022;-72
2022/09/07 09:20:00;;;;;;;1.87;1.35;;;;;;;17.69;81.39;95961.41;1763011;81;21550;-73
2022/09/07 09:22:28;;;;;;;2.15;1.20;;;;;;;17.72;81.35;95958.60;1763154;81;21029;-71
2022/09/07 09:25:19;;;;;;;2.98;1.77;;;;;;;17.82;81.85;95954.66;1761885;81;21049;-72
2022/09/07 09:27:47;;;;;;;1.95;1.50;;;;;;;17.93;81.97;95953.73;1763072;81;21507;-71
2022/09/07 09:30:21;;;;;;;2.80;1.50;;;;;;;18.09;81.91;95953.08;1762995;81;21076;-72
2022/09/07 09:33:01;;;;;;;1.20;1.10;;;;;;;18.28;81.94;95954.51;1763069;81;21061;-71
2022/09/07 09:35:36;;;;;;;3.75;1.30;;;;;;;18.37;80.83;95946.11;1756034;81;21029;-72
2022/09/07 09:38:03;;;;;;;5.03;1.50;;;;;;;18.45;80.36;95941.29;1763365;81;21049;-71
2022/09/07 09:40:33;;;;;;;2.83;1.80;;;;;;;18.52;80.92;95940.09;1760367;81;21579;-72
2022/09/07 09:43:16;;;;;;;2.45;1.57;;;;;;;18.59;80.40;95933.50;1754523;82;21034;-72
2022/09/07 09:45:53;;;;;;;2.17;1.98;;;;;;;18.74;80.42;95933.77;1753730;82;20978;-72
2022/09/07 09:48:25;;;;;;;3.60;2.08;;;;;;;18.93;80.35;95936.52;1755008;82;21062;-72
2022/09/07 09:50:56;;;;;;;2.17;1.98;;;;;;;19.00;79.32;95939.30;1754506;82;20994;-72
2022/09/07 09:53:39;;;;;;;4.25;2.35;;;;;;;18.97;78.94;95934.94;1755053;82;21496;-72
2022/09/07 09:56:07;;;;;;;;;;;;;;;19.08;79.44;95932.27;1757573;81;21056;-72
2022/09/07 09:58:44;;;;;;;2.95;2.75;;;;;;;19.20;78.98;95935.23;1733196;81;20467;-72
2022/09/07 10:01:31;;;;;;;4.08;2.70;;;;;;;19.16;77.67;95930.95;1693097;84;21074;-72
2022/09/07 10:04:26;;;;;;;1.98;1.87;;;;;;;19.35;78.89;95924.71;1715726;83;21501;-72
2022/09/07 10:07:12;;;;;;;2.55;2.10;;;;;;;19.57;75.53;95927.23;1715355;84;21037;-72
2022/09/07 10:09:41;;;;;;;2.25;1.77;;;;;;;19.66;76.58;95927.65;1716493;83;21457;-72
2022/09/07 10:12:31;;;;;;;2.70;2.50;;;;;;;19.93;74.51;95921.02;1716275;83;21070;-72
2022/09/07 10:15:01;;;;;;;3.37;3.08;;;;;;;20.17;73.99;95922.46;1716519;84;21082;-72
2022/09/07 10:17:38;;;;;;;2.58;2.37;;;;;;;20.37;73.76;95915.22;1716408;84;21007;-72
2022/09/07 10:20:19;;;;;;;3.00;2.70;;;;;;;20.68;74.87;95918.02;1715193;84;21059;-72
2022/09/07 10:22:55;;;;;;;3.72;3.42;;;;;;;20.87;70.95;95916.58;1743751;81;21009;-71
2022/09/07 10:25:35;;;;;;;3.37;3.08;;;;;;;21.10;70.77;95916.66;1721662;83;21028;-72
2022/09/07 10:28:16;;;;;;;4.00;3.50;;;;;;;21.29;70.12;95910.26;1721880;83;21519;-72
2022/09/07 10:31:06;;;;;;;3.80;3.35;;;;;;;21.53;68.30;95910.74;1721807;82;21080;-72
2022/09/07 10:33:58;;;;;;;5.00;3.80;;;;;;;21.77;66.88;95901.28;1721613;83;21076;-72
2022/09/07 10:36:57;;;;;;;4.17;3.67;;;;;;;21.91;66.86;95903.15;1721808;83;21072;-72
2022/09/07 10:39:40;;;;;;;6.70;4.20;;;;;;;22.01;65.01;95889.56;1721959;83;21004;-72
2022/09/07 10:42:32;;;;;;;4.40;4.00;;;;;;;22.16;65.73;95892.30;1720218;83;21040;-72
2022/09/07 10:45:16;;;;;;;4.20;3.72;;;;;;;22.27;63.43;95889.85;1630129;83;21114;-72
2022/09/07 10:48:05;;;;;;;4.60;4.00;;;;;;;22.46;64.19;95892.31;1721756;83;21506;-72
2022/09/07 10:50:55;;;;;;;4.20;3.80;;;;;;;22.64;63.97;95883.10;1721897;83;21016;-72
2022/09/07 10:53:37;;;;;;;11.20;8.35;;;;;;;22.89;64.16;95886.47;1721819;83;21513;-71
2022/09/07 10:56:20;;;;;;;11.50;4.35;;;;;;;23.07;62.48;95890.34;1721076;83;21025;-72
2022/09/07 10:59:30;;;;;;;4.50;3.55;;;;;;;23.27;63.39;95887.73;1722001;82;21096;-71
2022/09/07 11:02:33;;;;;;;10.60;3.35;;;;;;;23.55;61.74;95878.23;1721895;83;21020;-71
2022/09/07 11:05:18;;;;;;;;;;;;;;;23.75;62.02;95872.91;1724378;83;21048;-71
2022/09/07 11:08:26;;;;;;;4.15;3.85;;;;;;;24.01;60.94;95864.05;1721955;83;20101;-71
2022/09/07 11:11:10;;;;;;;4.53;4.10;;;;;;;24.24;57.27;95866.52;1721890;83;21041;-71
2022/09/07 11:13:40;;;;;;;3.92;3.50;;;;;;;24.54;60.63;95863.56;1721503;83;21107;-72
2022/09/07 11:16:24;;;;;;;4.03;3.70;;;;;;;24.93;58.70;95861.25;1721840;83;21510;-71
2022/09/07 11:19:14;;;;;;;4.87;3.70;;;;;;;25.28;57.39;95859.23;1721000;83;21045;-72
2022/09/07 11:21:46;;;;;;;4.10;3.80;;;;;;;24.99;57.04;95858.09;1721665;83;21068;-72
2022/09/07 11:24:19;;;;;;;;;;;;;;;24.95;55.48;95857.10;1722865;83;21092;-71
2022/09/07 11:26:52;;;;;;;4.03;3.70;;;;;;;24.95;55.00;95860.66;1721998;82;20089;-71
2022/09/07 11:29:33;;;;;;;4.58;3.40;;;;;;;25.26;56.71;95859.82;1722056;83;21036;-71
2022/09/07 11:32:14;;;;;;;4.53;3.67;;;;;;;25.75;55.20;95849.42;1717825;83;21610;-71
2022/09/07 11:34:49;;;;;;;7.22;3.37;;;;;;;25.89;55.49;95844.38;1721688;83;21037;-71
2022/09/07 11:37:24;;;;;;;3.70;3.30;;;;;;;26.45;53.75;95841.00;1721577;83;21016;-71
2022/09/07 11:40:36;;;;;;;3.27;2.98;;;;;;;27.02;53.92;95840.13;1721874;83;21029;-71
2022/09/07 11:43:23;;;;;;;3.58;3.12;;;;;;;27.34;50.95;95842.09;1720328;83;21044;-71
2022/09/07 11:46:07;;;;;;;3.45;3.15;;;;;;;27.65;49.73;95832.31;1721779;82;21088;-71
2022/09/07 11:48:42;;;;;;;6.53;3.40;;;;;;;27.62;49.79;95836.14;1721770;83;21128;-71
2022/09/07 11:51:35;;;;;;;5.22;3.80;;;;;;;26.94;50.18;95840.73;1721559;83;21577;-71
2022/09/07 11:54:31;;;;;;;4.03;3.50;;;;;;;26.40;51.35;95836.44;1721917;83;21546;-72
2022/09/07 11:57:15;;;;;;;4.62;3.77;;;;;;;25.87;53.87;95832.81;1721775;82;21080;-72
2022/09/07 12:00:13;;;;;;;4.58;3.98;;;;;;;25.54;53.54;95832.98;1707782;83;21104;-71
2022/09/07 12:03:00;;;;;;;3.95;3.65;;;;;;;25.55;54.47;95836.08;1721942;83;21016;-71
2022/09/07 12:06:02;;;;;;;4.12;3.50;;;;;;;25.82;54.78;95833.13;1721804;83;21013;-71
2022/09/07 12:09:01;;;;;;;3.72;3.42;;;;;;;25.56;54.91;95832.89;1721850;82;21017;-71
2022/09/07 12:12:13;;;;;;;5.42;4.05;;;;;;;25.03;55.37;95831.77;1721763;83;21119;-71